createdAt,value
2019-02-11T00:01:36.237Z,41.1
2019-02-11T00:06:34.466Z,41.1
2019-02-11T00:11:32.489Z,41.1
2019-02-11T00:16:30.649Z,41.1
2019-02-11T00:21:29.007Z,41.2
2019-02-11T00:26:27.063Z,41.2
2019-02-11T00:31:25.482Z,41.2
2019-02-11T00:36:23.819Z,41.2
2019-02-11T00:41:21.985Z,41.2
2019-02-11T00:46:20.273Z,41.2
2019-02-11T00:51:18.379Z,41.2
2019-02-11T00:56:16.514Z,41.2
2019-02-11T01:01:14.666Z,41.3
2019-02-11T01:06:12.806Z,41.3
2019-02-11T01:11:10.989Z,41.3
2019-02-11T01:16:08.963Z,41.3
2019-02-11T01:21:07.065Z,41.3
2019-02-11T01:26:04.982Z,41.3
2019-02-11T01:31:03.185Z,41.4
2019-02-11T01:36:01.304Z,41.4
2019-02-11T01:40:59.493Z,41.4
2019-02-11T01:45:57.664Z,41.4
2019-02-11T01:50:55.739Z,41.4
2019-02-11T01:55:53.941Z,41.4
2019-02-11T02:00:51.865Z,41.5
2019-02-11T02:05:49.930Z,41.5
2019-02-11T02:10:47.991Z,41.5
2019-02-11T02:15:46.114Z,41.5
2019-02-11T02:20:44.052Z,41.5
2019-02-11T02:25:42.220Z,41.6
2019-02-11T02:30:40.238Z,41.6
2019-02-11T02:35:37.769Z,41.6
2019-02-11T02:40:35.793Z,41.6
2019-02-11T02:45:33.888Z,41.6
2019-02-11T02:50:32.042Z,41.6
2019-02-11T02:55:30.319Z,41.6
2019-02-11T03:00:28.549Z,41.7
2019-02-11T03:05:26.919Z,41.7
2019-02-11T03:10:24.615Z,41.7
2019-02-11T03:15:22.784Z,41.7
2019-02-11T03:20:20.903Z,41.7
2019-02-11T03:25:19.097Z,41.7
2019-02-11T03:30:17.155Z,41.7
2019-02-11T03:35:14.991Z,41.7
2019-02-11T03:40:13.188Z,41.7
2019-02-11T03:45:11.071Z,41.7
2019-02-11T03:50:09.087Z,41.8
2019-02-11T03:55:07.152Z,41.8
2019-02-11T04:00:05.399Z,41.8
2019-02-11T04:05:03.446Z,41.8
2019-02-11T04:10:01.222Z,41.8
2019-02-11T04:14:59.377Z,41.8
2019-02-11T04:19:57.534Z,41.8
2019-02-11T04:24:55.801Z,41.8
2019-02-11T04:29:53.773Z,41.8
2019-02-11T04:34:51.871Z,41.9
2019-02-11T04:39:49.512Z,41.9
2019-02-11T04:44:47.697Z,41.9
2019-02-11T04:49:45.585Z,41.9
2019-02-11T04:54:43.697Z,41.9
2019-02-11T04:59:41.304Z,41.9
2019-02-11T05:04:39.477Z,42
2019-02-11T05:09:37.803Z,42
2019-02-11T05:14:44.417Z,42
2019-02-11T05:19:41.199Z,42
2019-02-11T05:24:39.390Z,42
2019-02-11T05:29:37.157Z,42
2019-02-11T05:34:35.159Z,42
2019-02-11T05:39:33.548Z,42.1
2019-02-11T05:44:31.664Z,42.1
2019-02-11T05:49:29.754Z,42.1
2019-02-11T05:54:27.448Z,42.2
2019-02-11T05:59:25.321Z,42.2
2019-02-11T06:04:23.325Z,42.2
2019-02-11T06:09:23.458Z,42.2
2019-02-11T06:14:21.164Z,42.2
2019-02-11T06:19:19.387Z,42.2
2019-02-11T06:24:17.592Z,42.2
2019-02-11T06:29:15.845Z,42.2
2019-02-11T06:34:13.959Z,42.2
2019-02-11T06:39:11.992Z,42.3
2019-02-11T06:44:10.024Z,42.3
2019-02-11T06:49:08.221Z,42.3
2019-02-11T06:54:06.054Z,42.3
2019-02-11T06:59:04.408Z,42.4
2019-02-11T07:04:02.636Z,42.4
2019-02-11T07:09:00.866Z,42.4
2019-02-11T07:13:58.926Z,42.5
2019-02-11T07:18:57.070Z,42.5
2019-02-11T07:23:55.326Z,42.5
2019-02-11T07:28:53.455Z,42.6
2019-02-11T07:33:51.717Z,42.6
2019-02-11T07:38:49.837Z,42.6
2019-02-11T07:43:47.940Z,42.7
2019-02-11T07:48:46.229Z,42.7
2019-02-11T07:53:44.341Z,42.8
2019-02-11T07:58:42.501Z,42.8
2019-02-11T08:03:41.008Z,42.8
2019-02-11T08:08:39.153Z,42.9
2019-02-11T08:13:37.427Z,43
2019-02-11T08:18:35.536Z,43
2019-02-11T08:23:33.774Z,43.1
2019-02-11T08:28:31.914Z,43.1
2019-02-11T08:33:30.733Z,43.1
2019-02-11T08:38:29.091Z,43.2
2019-02-11T08:43:27.559Z,43.2
2019-02-11T08:48:25.831Z,43.3
2019-02-11T08:53:24.167Z,43.3
2019-02-11T08:58:22.348Z,43.4
2019-02-11T09:03:20.704Z,43.4
2019-02-11T09:08:18.841Z,43.4
2019-02-11T09:13:16.937Z,43.5
2019-02-11T09:18:15.095Z,43.5
2019-02-11T09:23:13.471Z,43.6
2019-02-11T09:28:11.423Z,43.6
2019-02-11T09:33:09.741Z,43.6
2019-02-11T09:38:07.871Z,43.7
2019-02-11T09:43:06.531Z,43.7
2019-02-11T09:48:04.759Z,43.7
2019-02-11T09:53:02.918Z,43.8
2019-02-11T09:58:01.191Z,43.8
2019-02-11T10:02:59.384Z,43.8
2019-02-11T10:07:57.713Z,43.8
2019-02-11T10:12:56.026Z,43.8
2019-02-11T10:17:54.239Z,43.8
2019-02-11T10:22:52.714Z,43.9
2019-02-11T10:27:50.959Z,43.9
2019-02-11T10:32:49.228Z,43.9
2019-02-11T10:37:47.583Z,43.9
2019-02-11T10:42:45.712Z,43.9
2019-02-11T10:47:43.873Z,43.9
2019-02-11T10:52:42.109Z,43.9
2019-02-11T10:57:40.367Z,43.9
2019-02-11T11:02:38.561Z,43.9
2019-02-11T11:07:36.472Z,43.9
2019-02-11T11:12:34.888Z,43.9
2019-02-11T11:17:33.423Z,43.9
2019-02-11T11:22:31.523Z,43.9
2019-02-11T11:27:30.241Z,44
2019-02-11T11:32:28.425Z,43.9
2019-02-11T11:37:26.318Z,43.9
2019-02-11T11:42:24.594Z,44
2019-02-11T11:47:22.751Z,44
2019-02-11T11:52:21.189Z,44
2019-02-11T11:57:19.629Z,44
2019-02-11T12:02:17.902Z,44
2019-02-11T12:07:15.960Z,44
2019-02-11T12:12:14.030Z,44
2019-02-11T12:17:12.317Z,44.1
2019-02-11T12:22:13.471Z,44
2019-02-11T12:27:11.412Z,44
2019-02-11T12:32:09.581Z,44.1
2019-02-11T12:37:10.107Z,44.1
2019-02-11T12:42:07.959Z,44
2019-02-11T12:47:15.177Z,44.1
2019-02-11T12:52:11.976Z,44
2019-02-11T12:57:10.385Z,44
2019-02-11T13:02:08.755Z,44
2019-02-11T13:07:07.324Z,44
2019-02-11T13:12:05.388Z,44
2019-02-11T13:17:30.411Z,44
2019-02-11T13:22:27.235Z,43.9
2019-02-11T13:27:24.687Z,43.9
2019-02-11T13:32:22.746Z,44
2019-02-11T13:37:21.112Z,44
2019-02-11T13:42:19.205Z,44.1
2019-02-11T13:47:17.478Z,44.1
2019-02-11T13:52:15.855Z,44.1
2019-02-11T13:57:13.798Z,44.2
2019-02-11T14:02:12.211Z,44.3
2019-02-11T14:07:10.594Z,44.3
2019-02-11T14:12:08.886Z,44.3
2019-02-11T14:17:07.175Z,44.3
2019-02-11T14:22:05.582Z,44.4
2019-02-11T14:27:04.120Z,44.4
2019-02-11T14:32:02.744Z,44.4
2019-02-11T14:37:00.540Z,44.4
2019-02-11T14:41:58.599Z,44.4
2019-02-11T14:46:57.225Z,44.5
2019-02-11T14:51:55.265Z,44.5
2019-02-11T14:56:53.678Z,44.5
2019-02-11T15:01:51.387Z,44.5
2019-02-11T15:06:49.628Z,44.6
2019-02-11T15:11:47.814Z,44.6
2019-02-11T15:16:46.245Z,44.6
2019-02-11T15:21:44.984Z,44.7
2019-02-11T15:26:43.229Z,44.6
2019-02-11T15:31:41.725Z,44.6
2019-02-11T15:36:40.036Z,44.6
2019-02-11T15:41:38.638Z,44.5
2019-02-11T15:46:36.673Z,44.5
2019-02-11T15:51:34.875Z,44.5
2019-02-11T15:56:33.164Z,44.5
2019-02-11T16:01:31.766Z,44.5
2019-02-11T16:06:38.380Z,44.5
2019-02-11T16:11:36.095Z,44.4
2019-02-11T16:16:34.095Z,44.5
2019-02-11T16:21:32.361Z,44.5
2019-02-11T16:26:30.594Z,44.5
2019-02-11T16:31:28.987Z,44.5
2019-02-11T16:36:27.459Z,44.5
2019-02-11T16:41:26.063Z,44.6
2019-02-11T16:46:24.757Z,44.6
2019-02-11T16:51:23.275Z,44.6
2019-02-11T16:56:21.975Z,44.6
2019-02-11T17:01:19.866Z,44.6
2019-02-11T17:06:18.155Z,44.7
2019-02-11T17:11:16.620Z,44.7
2019-02-11T17:16:15.102Z,44.7
2019-02-11T17:21:13.372Z,44.8
2019-02-11T17:26:12.917Z,44.8
2019-02-11T17:31:11.569Z,44.8
2019-02-11T17:36:09.715Z,44.8
2019-02-11T17:41:08.165Z,44.8
2019-02-11T17:46:06.309Z,44.9
2019-02-11T17:51:04.752Z,44.9
2019-02-11T17:56:03.041Z,44.9
2019-02-11T18:01:01.241Z,44.9
2019-02-11T18:06:00.587Z,44.9
2019-02-11T18:10:58.449Z,44.9
2019-02-11T18:15:56.646Z,45
2019-02-11T18:20:54.983Z,45
2019-02-11T18:25:53.127Z,45
2019-02-11T18:30:51.483Z,45
2019-02-11T18:35:49.635Z,45
2019-02-11T18:40:47.776Z,45.1
2019-02-11T18:45:46.244Z,45.1
2019-02-11T18:50:44.114Z,45.1
2019-02-11T18:55:42.442Z,45.1
2019-02-11T19:00:40.511Z,45.1
2019-02-11T19:05:38.693Z,45.2
2019-02-11T19:10:36.857Z,45.2
2019-02-11T19:15:35.228Z,45.1
2019-02-11T19:20:33.084Z,45.1
2019-02-11T19:25:31.265Z,45.1
2019-02-11T19:30:29.603Z,45.2
2019-02-11T19:35:27.995Z,45.2
2019-02-11T19:40:26.337Z,45.3
2019-02-11T19:45:24.421Z,45.3
2019-02-11T19:50:22.803Z,45.3
2019-02-11T19:55:21.187Z,45.4
2019-02-11T20:00:19.444Z,45.4
2019-02-11T20:05:17.659Z,45.4
2019-02-11T20:10:15.917Z,45.4
2019-02-11T20:15:14.314Z,45.4
2019-02-11T20:20:12.919Z,45.5
2019-02-11T20:25:11.368Z,45.5
2019-02-11T20:30:09.524Z,45.5
2019-02-11T20:35:07.848Z,45.5
2019-02-11T20:40:06.328Z,45.6
2019-02-11T20:45:04.633Z,45.6
2019-02-11T20:50:11.975Z,45.6
2019-02-11T20:55:08.759Z,45.5
2019-02-11T21:00:07.142Z,45.6
2019-02-11T21:05:05.507Z,45.6
2019-02-11T21:10:03.767Z,45.7
2019-02-11T21:15:01.581Z,45.7
2019-02-11T21:20:00.035Z,45.7
2019-02-11T21:24:58.340Z,45.7
2019-02-11T21:29:56.624Z,45.7
2019-02-11T21:34:54.638Z,45.8
2019-02-11T21:39:53.012Z,45.8
2019-02-11T21:44:51.425Z,45.7
2019-02-11T21:49:49.964Z,45.8
2019-02-11T21:54:48.103Z,45.8
2019-02-11T21:59:46.293Z,45.8
2019-02-11T22:04:44.662Z,45.8
2019-02-11T22:09:42.802Z,45.9
2019-02-11T22:14:41.068Z,45.9
2019-02-11T22:19:39.250Z,46
2019-02-11T22:24:37.617Z,46
2019-02-11T22:29:36.016Z,46
2019-02-11T22:34:34.263Z,46
2019-02-11T22:39:32.537Z,46
2019-02-11T22:44:30.119Z,46
2019-02-11T22:49:28.525Z,46
2019-02-11T22:54:26.803Z,46
2019-02-11T22:59:25.357Z,46
2019-02-11T23:04:23.732Z,46
2019-02-11T23:09:22.131Z,46
2019-02-11T23:14:20.477Z,46
2019-02-11T23:19:18.716Z,46
2019-02-11T23:24:17.021Z,46
2019-02-11T23:29:15.235Z,46
2019-02-11T23:34:13.396Z,45.9
2019-02-11T23:39:11.721Z,45.9
2019-02-11T23:44:09.823Z,45.9
2019-02-11T23:49:08.105Z,45.9
2019-02-11T23:54:06.287Z,45.8
2019-02-11T23:59:04.437Z,45.8
